バンギ の空港の天気 - METARとTAF

バンギ・ムポコ国際空港 ( FEFF / BGF ) - 中央アフリカ バンギ
飛行場実況気象(Metar)
観測時間08/22 17:00 WAT (08/22 16:00 UTC)
風向・風速南 2m/s
視程10km以上
天気現象
少しの雲 雲底高度 490m
少しの雲 雲底高度 1010m
気温30℃
湿度70%
気圧1010hPa
METARFEFF 221600Z 18004KT 9999 FEW016 FEW033CB 30/24 Q1010 NOSIG
過去の天気等 Google飛行場航空写真 Wunderground天気予報

過去48時間のMETAR

飛行場予報(TAF)
発表時間: 8/22 12:00 WAT (8/22 11:00 UTC)
予報対象時間: 22日13時 WAT ~ 23日19時 WAT
風向・風速不定 2m/s
視程10km以上
全天の4割程度の雲 雲底高度 610m
22日15時 WAT ~ 22日21時 WAT に 確率 30% で一時的に
風向・風速不定 8m/s
天気現象雷雨
全天の8割程度の雲 雲底高度 300m
少しの積乱雲 雲底高度 1010m
23日0時 WAT から 確率 30% で
天気現象雷雨
少しの積乱雲 雲底高度 910m
23日5時 WAT ~ 23日7時 WAT に一時的に
視程2000m
天気現象もや
23日7時 WAT ~ 23日9時 WAT に徐々に
全天の8割程度の雲 雲底高度 300m
TAF FEFF 221100Z 2212/2318 VRB03KT 9999 SCT020
PROB30 TEMPO 2214/2220 VRB15KT TSRA BKN010 FEW033CB
PROB30 2223/2302 TSRA FEW030CB
TEMPO 2304/2306 2000 BR
BECMG 2306/2308 BKN010